createdAt,value
2017-01-09T00:00:44.407Z,99.93
2017-01-09T00:01:53.086Z,99.93
2017-01-09T00:03:01.768Z,99.93
2017-01-09T00:04:10.454Z,99.64
2017-01-09T00:05:19.134Z,99.83
2017-01-09T00:06:27.817Z,99.45
2017-01-09T00:07:36.504Z,99.64
2017-01-09T00:08:45.181Z,99.74
2017-01-09T00:09:53.870Z,99.83
2017-01-09T00:11:02.581Z,99.55
2017-01-09T00:12:11.272Z,99.74
2017-01-09T00:13:19.957Z,99.74
2017-01-09T00:14:28.641Z,99.55
2017-01-09T00:15:37.323Z,99.45
2017-01-09T00:16:46.005Z,99.36
2017-01-09T00:17:54.687Z,99.99
2017-01-09T00:19:03.374Z,99.93
2017-01-09T00:20:12.066Z,99.45
2017-01-09T00:21:20.748Z,99.74
2017-01-09T00:22:29.459Z,99.45
2017-01-09T00:23:38.143Z,99.74
2017-01-09T00:24:46.827Z,99.26
2017-01-09T00:25:55.508Z,99.64
2017-01-09T00:27:04.191Z,99.99
2017-01-09T00:28:12.877Z,99.64
2017-01-09T00:29:21.556Z,99.45
2017-01-09T00:30:30.235Z,99.64
2017-01-09T00:31:38.918Z,99.64
2017-01-09T00:32:47.601Z,99.45
2017-01-09T00:33:56.674Z,99.64
2017-01-09T00:35:05.359Z,99.99
2017-01-09T00:36:14.039Z,99.99
2017-01-09T00:37:22.724Z,99.99
2017-01-09T00:38:31.407Z,99.36
2017-01-09T00:39:40.085Z,99.74
2017-01-09T00:40:48.761Z,99.64
2017-01-09T00:41:57.445Z,99.45
2017-01-09T00:43:06.131Z,99.55
2017-01-09T00:44:14.814Z,99.08
2017-01-09T00:45:23.491Z,99.08
2017-01-09T00:46:32.170Z,99.36
2017-01-09T00:47:40.855Z,99.26
2017-01-09T00:48:49.544Z,98.51
2017-01-09T00:49:58.233Z,98.41
2017-01-09T00:51:06.910Z,98.32
2017-01-09T00:52:15.595Z,98.51
2017-01-09T00:53:24.279Z,98.51
2017-01-09T00:54:32.968Z,98.23
2017-01-09T00:55:42.047Z,98.32
2017-01-09T00:56:50.757Z,98.04
2017-01-09T00:57:59.445Z,98.41
2017-01-09T00:59:08.132Z,98.41
2017-01-09T01:00:16.810Z,98.79
2017-01-09T01:01:25.489Z,98.6
2017-01-09T01:02:34.172Z,98.7
2017-01-09T01:03:42.851Z,98.79
2017-01-09T01:04:51.532Z,98.41
2017-01-09T01:06:00.219Z,98.41
2017-01-09T01:07:08.901Z,98.7
2017-01-09T01:08:17.578Z,98.51
2017-01-09T01:09:26.261Z,98.41
2017-01-09T01:10:34.946Z,98.7
2017-01-09T01:11:43.624Z,98.98
2017-01-09T01:12:52.315Z,99.08
2017-01-09T01:14:01.000Z,99.26
2017-01-09T01:15:09.679Z,98.98
2017-01-09T01:16:18.364Z,98.6
2017-01-09T01:17:27.045Z,99.08
2017-01-09T01:18:35.735Z,99.74
2017-01-09T01:19:44.426Z,98.98
2017-01-09T01:20:53.127Z,99.17
2017-01-09T01:22:01.809Z,98.79
2017-01-09T01:23:10.493Z,99.17
2017-01-09T01:24:19.170Z,99.08
2017-01-09T01:25:27.855Z,99.26
2017-01-09T01:26:36.950Z,98.98
2017-01-09T01:27:45.635Z,98.79
2017-01-09T01:28:54.315Z,98.7
2017-01-09T01:30:02.997Z,98.89
2017-01-09T01:31:11.678Z,98.6
2017-01-09T01:32:20.362Z,98.79
2017-01-09T01:33:29.042Z,98.7
2017-01-09T01:34:37.721Z,98.23
2017-01-09T01:35:46.403Z,98.04
2017-01-09T01:36:55.086Z,98.51
2017-01-09T01:38:03.771Z,98.89
2017-01-09T01:39:12.446Z,98.7
2017-01-09T01:40:21.130Z,98.79
2017-01-09T01:41:29.810Z,98.6
2017-01-09T01:42:38.486Z,98.51
2017-01-09T01:43:47.170Z,98.13
2017-01-09T01:44:55.854Z,98.23
2017-01-09T01:46:04.539Z,98.32
2017-01-09T01:47:13.222Z,97.85
2017-01-09T01:48:21.905Z,98.56
2017-01-09T01:49:30.595Z,98.65
2017-01-09T01:50:39.276Z,98.47
2017-01-09T01:51:47.957Z,98.37
2017-01-09T01:52:56.643Z,98.65
2017-01-09T01:54:05.326Z,98.75
2017-01-09T01:55:14.010Z,98.65
2017-01-09T01:56:22.695Z,98.65
2017-01-09T01:57:31.378Z,98.37
2017-01-09T01:58:40.061Z,98.37
2017-01-09T01:59:48.739Z,98.56
2017-01-09T02:00:57.422Z,98.47
2017-01-09T02:02:06.108Z,98.47
2017-01-09T02:03:14.792Z,98.75
2017-01-09T02:04:23.473Z,98.84
2017-01-09T02:05:32.156Z,98.84
2017-01-09T02:06:40.840Z,98.75
2017-01-09T02:07:49.526Z,98.65
2017-01-09T02:08:58.214Z,98.75
2017-01-09T02:10:06.898Z,98.94
2017-01-09T02:11:15.580Z,98.37
2017-01-09T02:12:24.262Z,98.28
2017-01-09T02:13:32.947Z,98.75
2017-01-09T02:14:41.628Z,98.09
2017-01-09T02:15:50.309Z,98.56
2017-01-09T02:16:58.996Z,98.47
2017-01-09T02:18:07.682Z,99.03
2017-01-09T02:19:16.368Z,99.22
2017-01-09T02:20:25.055Z,99.32
2017-01-09T02:21:33.746Z,99.32
2017-01-09T02:22:42.432Z,99.41
2017-01-09T02:23:51.137Z,98.75
2017-01-09T02:24:59.818Z,99.13
2017-01-09T02:26:08.512Z,99.13
2017-01-09T02:27:17.195Z,99.51
2017-01-09T02:28:25.877Z,98.94
2017-01-09T02:29:34.563Z,98.94
2017-01-09T02:30:43.248Z,99.6
2017-01-09T02:31:51.934Z,99.69
2017-01-09T02:33:00.613Z,99.79
2017-01-09T02:34:09.326Z,99.69
2017-01-09T02:35:18.011Z,99.79
2017-01-09T02:36:26.690Z,99.51
2017-01-09T02:37:35.473Z,99.79
2017-01-09T02:38:44.551Z,99.98
2017-01-09T02:39:53.237Z,99.99
2017-01-09T02:41:01.926Z,99.99
2017-01-09T02:42:10.609Z,99.99
2017-01-09T02:43:19.296Z,99.99
2017-01-09T02:44:27.982Z,99.99
2017-01-09T02:45:36.666Z,99.99
2017-01-09T02:46:45.352Z,99.99
2017-01-09T02:47:54.035Z,99.99
2017-01-09T02:49:02.716Z,99.99
2017-01-09T02:50:11.401Z,99.99
2017-01-09T02:51:20.081Z,99.99
2017-01-09T02:52:28.773Z,99.99
2017-01-09T02:53:37.458Z,99.99
2017-01-09T02:54:46.138Z,99.99
2017-01-09T02:55:54.817Z,99.99
2017-01-09T02:57:03.500Z,99.99
2017-01-09T02:58:12.181Z,99.99
2017-01-09T02:59:20.868Z,99.99
2017-01-09T03:00:29.604Z,99.99
2017-01-09T03:01:38.288Z,99.99
2017-01-09T03:02:46.970Z,99.99
2017-01-09T03:03:55.654Z,99.99
2017-01-09T03:05:04.344Z,99.99
2017-01-09T03:06:13.037Z,99.99
2017-01-09T03:07:21.721Z,99.99
2017-01-09T03:08:30.410Z,99.99
2017-01-09T03:09:39.094Z,99.99
2017-01-09T03:10:47.788Z,99.99
2017-01-09T03:11:56.472Z,99.99
2017-01-09T03:13:05.160Z,99.99
2017-01-09T03:14:13.849Z,99.99
2017-01-09T03:15:22.534Z,99.99
2017-01-09T03:16:31.219Z,99.99
2017-01-09T03:17:39.906Z,99.99
2017-01-09T03:18:48.588Z,99.99
2017-01-09T03:19:57.268Z,99.99
2017-01-09T03:21:05.950Z,99.99
2017-01-09T03:22:14.634Z,99.99
2017-01-09T03:23:23.323Z,99.99
2017-01-09T03:24:32.011Z,99.99
2017-01-09T03:25:40.694Z,99.99
2017-01-09T03:26:49.379Z,99.99
2017-01-09T03:27:58.060Z,99.99
2017-01-09T03:29:06.746Z,99.99
2017-01-09T03:30:15.428Z,99.99
2017-01-09T03:31:24.114Z,99.99
2017-01-09T03:32:32.802Z,99.99
2017-01-09T03:33:41.485Z,99.99
2017-01-09T03:34:50.169Z,99.99
2017-01-09T03:35:58.853Z,99.99
2017-01-09T03:37:07.538Z,99.99
2017-01-09T03:38:16.222Z,99.99
2017-01-09T03:39:24.905Z,99.69
2017-01-09T03:40:33.592Z,99.99
2017-01-09T03:41:42.305Z,99.98
2017-01-09T03:42:50.989Z,99.99
2017-01-09T03:43:59.700Z,99.99
2017-01-09T03:45:08.781Z,99.99
2017-01-09T03:46:17.467Z,99.99
2017-01-09T03:47:26.151Z,99.99
2017-01-09T03:48:34.836Z,99.99
2017-01-09T03:49:43.516Z,99.99
2017-01-09T03:50:52.205Z,99.99
2017-01-09T03:52:00.887Z,99.99
2017-01-09T03:53:09.565Z,99.99
2017-01-09T03:54:18.248Z,99.99
2017-01-09T03:55:26.939Z,99.99
2017-01-09T03:56:35.619Z,99.99
2017-01-09T03:57:44.303Z,99.99
2017-01-09T03:58:52.988Z,99.99
2017-01-09T04:00:01.674Z,99.99
2017-01-09T04:01:10.363Z,99.99
2017-01-09T04:02:19.061Z,99.99
2017-01-09T04:03:27.747Z,99.99
2017-01-09T04:04:36.828Z,99.99
2017-01-09T04:05:45.507Z,99.99
2017-01-09T04:06:54.191Z,99.99
2017-01-09T04:08:02.882Z,99.99
2017-01-09T04:09:11.562Z,99.99
2017-01-09T04:10:20.262Z,99.99
2017-01-09T04:11:28.945Z,99.99
2017-01-09T04:12:37.631Z,99.99
2017-01-09T04:13:46.312Z,99.99
2017-01-09T04:14:54.991Z,99.99
2017-01-09T04:16:03.679Z,99.99
2017-01-09T04:17:12.369Z,99.99
2017-01-09T04:18:21.049Z,99.99
2017-01-09T04:19:29.732Z,99.99
2017-01-09T04:20:38.811Z,99.99
2017-01-09T04:21:47.499Z,99.99
2017-01-09T04:22:56.182Z,99.99
2017-01-09T04:24:04.864Z,99.99
2017-01-09T04:25:13.551Z,99.99
2017-01-09T04:26:22.230Z,99.99
2017-01-09T04:27:30.916Z,99.99
2017-01-09T04:28:39.602Z,99.99
2017-01-09T04:29:48.292Z,99.99
2017-01-09T04:30:56.975Z,99.99
2017-01-09T04:32:05.689Z,99.99
2017-01-09T04:33:14.374Z,99.99
2017-01-09T04:34:23.055Z,99.99
2017-01-09T04:35:31.741Z,99.99
2017-01-09T04:36:40.420Z,99.99
2017-01-09T04:37:49.103Z,99.99
2017-01-09T04:38:57.784Z,99.99
2017-01-09T04:40:06.472Z,99.99
2017-01-09T04:41:15.157Z,99.99
2017-01-09T04:42:23.838Z,99.99
2017-01-09T04:43:32.521Z,99.99
2017-01-09T04:44:41.231Z,99.99
2017-01-09T04:45:49.944Z,99.99
2017-01-09T04:46:58.625Z,99.99
2017-01-09T04:48:07.314Z,99.99
2017-01-09T04:49:16.002Z,99.99
2017-01-09T04:50:24.710Z,99.99
2017-01-09T04:51:33.391Z,99.99
2017-01-09T04:52:42.074Z,99.99
2017-01-09T04:53:50.762Z,99.99
2017-01-09T04:54:59.452Z,99.99
2017-01-09T04:56:08.142Z,99.99
2017-01-09T04:57:16.826Z,99.99
2017-01-09T04:58:25.907Z,99.99
2017-01-09T04:59:34.592Z,99.99
2017-01-09T05:00:43.279Z,99.99
2017-01-09T05:01:51.964Z,99.99
2017-01-09T05:03:01.041Z,99.98
2017-01-09T05:04:09.726Z,99.69
2017-01-09T05:05:18.409Z,99.6
2017-01-09T05:06:27.090Z,99.69
2017-01-09T05:07:35.772Z,99.51
2017-01-09T05:08:44.465Z,99.41
2017-01-09T05:09:53.146Z,99.13
2017-01-09T05:11:01.855Z,98.94
2017-01-09T05:12:10.545Z,99.32
2017-01-09T05:13:19.228Z,99.51
2017-01-09T05:14:27.909Z,99.99
2017-01-09T05:15:36.600Z,99.88
2017-01-09T05:16:45.286Z,99.69
2017-01-09T05:17:53.990Z,99.98
2017-01-09T05:19:02.677Z,99.51
2017-01-09T05:20:11.367Z,99.22
2017-01-09T05:21:20.054Z,99.13
2017-01-09T05:22:28.744Z,99.51
2017-01-09T05:23:37.433Z,99.13
2017-01-09T05:24:46.114Z,99.13
2017-01-09T05:25:54.795Z,99.32
2017-01-09T05:27:03.484Z,98.84
2017-01-09T05:28:12.173Z,99.22
2017-01-09T05:29:20.852Z,99.6
2017-01-09T05:30:29.537Z,99.13
2017-01-09T05:31:38.223Z,99.51
2017-01-09T05:32:47.310Z,99.98
2017-01-09T05:33:55.998Z,99.41
2017-01-09T05:35:04.684Z,99.22
2017-01-09T05:36:13.368Z,99.41
2017-01-09T05:37:22.053Z,99.22
2017-01-09T05:38:30.746Z,99.98
2017-01-09T05:39:39.428Z,99.6
2017-01-09T05:40:48.111Z,99.32
2017-01-09T05:41:56.792Z,99.22
2017-01-09T05:43:05.479Z,99.22
2017-01-09T05:44:14.161Z,98.75
2017-01-09T05:45:22.843Z,99.03
2017-01-09T05:46:31.526Z,99.22
2017-01-09T05:47:40.213Z,99.41
2017-01-09T05:48:48.893Z,99.69
2017-01-09T05:49:57.572Z,99.41
2017-01-09T05:51:06.269Z,99.79
2017-01-09T05:52:14.952Z,99.51
2017-01-09T05:53:23.637Z,99.69
2017-01-09T05:54:32.324Z,99.79
2017-01-09T05:55:41.008Z,99.51
2017-01-09T05:56:49.701Z,99.88
2017-01-09T05:57:58.381Z,99.88
2017-01-09T05:59:07.067Z,99.69
2017-01-09T06:00:15.753Z,99.88
2017-01-09T06:01:24.439Z,99.69
2017-01-09T06:02:33.122Z,99.99
2017-01-09T06:03:41.812Z,99.98
2017-01-09T06:04:50.495Z,99.79
2017-01-09T06:05:59.200Z,99.69
2017-01-09T06:07:07.888Z,99.79
2017-01-09T06:08:16.569Z,99.99
2017-01-09T06:09:25.254Z,99.99
2017-01-09T06:10:33.940Z,99.99
2017-01-09T06:11:42.622Z,99.99
2017-01-09T06:12:51.313Z,99.99
2017-01-09T06:13:59.996Z,99.99
2017-01-09T06:15:08.684Z,99.99
2017-01-09T06:16:17.368Z,99.99
2017-01-09T06:17:26.054Z,99.99
2017-01-09T06:18:34.746Z,99.99
2017-01-09T06:19:43.425Z,99.99
2017-01-09T06:20:52.109Z,99.99
2017-01-09T06:22:00.795Z,99.99
2017-01-09T06:23:09.495Z,99.99
2017-01-09T06:24:18.180Z,99.99
2017-01-09T06:25:26.864Z,99.99
2017-01-09T06:26:35.551Z,99.99
2017-01-09T06:27:44.237Z,99.99
2017-01-09T06:28:52.923Z,99.99
2017-01-09T06:30:01.607Z,99.99
2017-01-09T06:31:10.315Z,99.99
2017-01-09T06:32:18.994Z,99.99
2017-01-09T06:33:27.678Z,99.99
2017-01-09T06:34:36.360Z,99.99
2017-01-09T06:35:45.042Z,99.99
2017-01-09T06:36:53.730Z,99.99
2017-01-09T06:38:02.415Z,99.99
2017-01-09T06:39:11.109Z,99.99
2017-01-09T06:40:19.795Z,99.99
2017-01-09T06:41:28.479Z,99.99
2017-01-09T06:42:37.162Z,99.99
2017-01-09T06:43:45.854Z,99.99
2017-01-09T06:44:54.534Z,99.99
2017-01-09T06:46:03.214Z,99.99
2017-01-09T06:47:11.896Z,99.99
2017-01-09T06:48:20.579Z,99.99
2017-01-09T06:49:29.263Z,99.99
2017-01-09T06:50:37.970Z,99.99
2017-01-09T06:51:46.657Z,99.99
2017-01-09T06:52:55.348Z,99.99
2017-01-09T06:54:04.064Z,99.99
2017-01-09T06:55:12.746Z,99.99
2017-01-09T06:56:21.452Z,99.99
2017-01-09T06:57:30.147Z,99.99
2017-01-09T06:58:38.837Z,99.99
2017-01-09T06:59:47.527Z,99.99
2017-01-09T07:00:56.609Z,99.99
2017-01-09T07:02:05.301Z,99.99
2017-01-09T07:03:13.989Z,99.99
2017-01-09T07:04:22.672Z,99.99
2017-01-09T07:05:31.362Z,99.99
2017-01-09T07:06:40.051Z,99.99
2017-01-09T07:07:48.734Z,99.99
2017-01-09T07:08:57.417Z,99.99
2017-01-09T07:10:06.103Z,99.99
2017-01-09T07:11:14.798Z,99.99
2017-01-09T07:12:23.480Z,99.99
2017-01-09T07:13:32.170Z,99.99
2017-01-09T07:14:40.863Z,99.99
2017-01-09T07:15:49.546Z,99.99
2017-01-09T07:16:58.233Z,99.99
2017-01-09T07:18:06.919Z,99.99
2017-01-09T07:19:16.007Z,99.99
2017-01-09T07:20:24.717Z,99.99
2017-01-09T07:21:33.403Z,99.99
2017-01-09T07:22:42.085Z,99.99
2017-01-09T07:23:50.818Z,99.99
2017-01-09T07:24:59.501Z,99.99
2017-01-09T07:26:08.188Z,99.99
2017-01-09T07:27:16.872Z,99.98
2017-01-09T07:28:25.559Z,99.99
2017-01-09T07:29:34.243Z,99.99
2017-01-09T07:30:42.927Z,99.99
2017-01-09T07:31:51.612Z,99.99
2017-01-09T07:33:00.293Z,99.99
2017-01-09T07:34:08.974Z,99.99
2017-01-09T07:35:17.652Z,99.99
2017-01-09T07:36:26.340Z,99.99
2017-01-09T07:37:35.426Z,99.98
2017-01-09T07:38:44.106Z,99.99
2017-01-09T07:39:52.789Z,99.99
2017-01-09T07:41:01.474Z,99.99
2017-01-09T07:42:10.159Z,99.99
2017-01-09T07:43:18.843Z,99.99
2017-01-09T07:44:27.527Z,99.99
2017-01-09T07:45:36.206Z,99.99
2017-01-09T07:46:44.893Z,99.99
2017-01-09T07:47:53.592Z,99.99
2017-01-09T07:49:02.270Z,99.99
2017-01-09T07:50:10.959Z,99.99
2017-01-09T07:51:19.639Z,99.99
2017-01-09T07:52:28.348Z,99.99
2017-01-09T07:53:37.038Z,99.99
2017-01-09T07:54:45.763Z,99.99
2017-01-09T07:55:54.444Z,99.99
2017-01-09T07:57:03.139Z,99.99
2017-01-09T07:58:11.834Z,99.99
2017-01-09T07:59:20.522Z,99.99
2017-01-09T08:00:29.209Z,99.99
2017-01-09T08:01:37.891Z,99.99
2017-01-09T08:02:46.574Z,99.99
2017-01-09T08:03:55.256Z,99.99
2017-01-09T08:05:03.940Z,99.99
2017-01-09T08:06:12.624Z,99.99
2017-01-09T08:07:21.314Z,99.99
2017-01-09T08:08:30.020Z,99.99
2017-01-09T08:09:38.711Z,99.99
2017-01-09T08:10:47.403Z,99.99
2017-01-09T08:11:56.084Z,99.99
2017-01-09T08:13:04.761Z,99.99
2017-01-09T08:14:13.448Z,99.99
2017-01-09T08:15:22.158Z,99.99
2017-01-09T08:16:30.845Z,99.99
2017-01-09T08:17:39.531Z,99.99
2017-01-09T08:18:48.239Z,99.99
2017-01-09T08:19:56.923Z,99.99
2017-01-09T08:21:05.605Z,99.99
2017-01-09T08:22:14.293Z,99.99
2017-01-09T08:23:22.982Z,99.99
2017-01-09T08:24:31.666Z,99.99
2017-01-09T08:25:40.375Z,99.99
2017-01-09T08:26:49.058Z,99.99
2017-01-09T08:27:57.742Z,99.99
2017-01-09T08:29:06.446Z,99.99
2017-01-09T08:30:15.131Z,99.99
2017-01-09T08:31:23.822Z,99.99
2017-01-09T08:32:32.509Z,99.99
2017-01-09T08:33:41.194Z,99.99
2017-01-09T08:34:49.887Z,99.99
2017-01-09T08:35:58.570Z,99.99
2017-01-09T08:37:07.257Z,99.99
2017-01-09T08:38:15.942Z,99.99
2017-01-09T08:39:24.622Z,99.99
2017-01-09T08:40:33.305Z,99.99
2017-01-09T08:41:42.014Z,99.99
2017-01-09T08:42:50.705Z,99.99
2017-01-09T08:43:59.393Z,99.99
2017-01-09T08:45:08.082Z,99.99
2017-01-09T08:46:16.764Z,99.99
2017-01-09T08:47:25.450Z,99.99
2017-01-09T08:48:34.537Z,99.99
2017-01-09T08:49:43.221Z,99.99
2017-01-09T08:50:51.911Z,99.99
2017-01-09T08:52:00.595Z,99.99
2017-01-09T08:53:09.280Z,99.99
2017-01-09T08:54:17.965Z,99.99
2017-01-09T08:55:26.681Z,99.99
2017-01-09T08:56:35.367Z,99.99
2017-01-09T08:57:44.053Z,99.99
2017-01-09T08:58:52.734Z,99.99
2017-01-09T09:00:01.418Z,99.99
2017-01-09T09:01:10.103Z,99.99
2017-01-09T09:02:18.788Z,99.99
2017-01-09T09:03:27.473Z,99.99
2017-01-09T09:04:36.193Z,99.99
2017-01-09T09:05:44.886Z,99.99
2017-01-09T09:06:53.971Z,99.99
2017-01-09T09:08:02.657Z,99.99
2017-01-09T09:09:11.344Z,99.99
2017-01-09T09:10:20.024Z,99.99
2017-01-09T09:11:28.708Z,99.99
2017-01-09T09:12:37.402Z,99.99
2017-01-09T09:13:46.082Z,99.99
2017-01-09T09:14:54.770Z,99.99
2017-01-09T09:16:03.453Z,99.99
2017-01-09T09:17:12.139Z,99.99
2017-01-09T09:18:20.820Z,99.99
2017-01-09T09:19:29.505Z,99.99
2017-01-09T09:20:38.189Z,99.99
2017-01-09T09:21:46.867Z,99.99
2017-01-09T09:22:55.556Z,99.99
2017-01-09T09:24:04.241Z,99.99
2017-01-09T09:25:12.929Z,99.99
2017-01-09T09:26:21.619Z,99.99
2017-01-09T09:27:30.302Z,99.99
2017-01-09T09:28:39.384Z,99.99
2017-01-09T09:29:48.070Z,99.99
2017-01-09T09:30:56.753Z,99.99
2017-01-09T09:32:05.432Z,99.99
2017-01-09T09:33:14.117Z,99.99
2017-01-09T09:34:22.800Z,99.99
2017-01-09T09:35:31.487Z,99.99
2017-01-09T09:36:40.171Z,99.99
2017-01-09T09:37:48.863Z,99.99
2017-01-09T09:38:57.543Z,99.99
2017-01-09T09:40:06.225Z,99.99
2017-01-09T09:41:14.913Z,99.99
2017-01-09T09:42:23.595Z,99.99
2017-01-09T09:43:32.282Z,99.74
2017-01-09T09:44:40.966Z,99.55
2017-01-09T09:45:49.649Z,99.74
2017-01-09T09:46:58.331Z,99.84
2017-01-09T09:48:07.019Z,99.93
2017-01-09T09:49:15.698Z,99.74
2017-01-09T09:50:24.383Z,99.74
2017-01-09T09:51:33.067Z,99.74
2017-01-09T09:52:41.749Z,99.99
2017-01-09T09:53:50.431Z,99.99
2017-01-09T09:54:59.507Z,99.37
2017-01-09T09:56:08.193Z,99.37
2017-01-09T09:57:16.901Z,99.55
2017-01-09T09:58:25.587Z,99.55
2017-01-09T09:59:34.272Z,99.46
2017-01-09T10:00:42.955Z,99.27
2017-01-09T10:01:51.638Z,99.37
2017-01-09T10:03:00.317Z,99.27
2017-01-09T10:04:09.005Z,99.27
2017-01-09T10:05:17.687Z,99.37
2017-01-09T10:06:26.370Z,99.55
2017-01-09T10:07:35.053Z,99.27
2017-01-09T10:08:43.736Z,99.37
2017-01-09T10:09:52.417Z,99.37
2017-01-09T10:11:01.103Z,99.46
2017-01-09T10:12:09.792Z,99.37
2017-01-09T10:13:18.484Z,99.65
2017-01-09T10:14:27.172Z,99.37
2017-01-09T10:15:35.854Z,99.55
2017-01-09T10:16:44.545Z,99.99
2017-01-09T10:17:53.225Z,99.55
2017-01-09T10:19:01.909Z,99.84
2017-01-09T10:20:10.595Z,99.84
2017-01-09T10:21:19.280Z,99.74
2017-01-09T10:22:27.964Z,99.74
2017-01-09T10:23:36.653Z,99.99
2017-01-09T10:24:45.338Z,99.84
2017-01-09T10:25:54.024Z,99.99
2017-01-09T10:27:02.708Z,99.46
2017-01-09T10:28:11.392Z,99.99
2017-01-09T10:29:20.078Z,99.93
2017-01-09T10:30:28.760Z,99.46
2017-01-09T10:31:37.442Z,99.84
2017-01-09T10:32:46.131Z,99.99
2017-01-09T10:33:54.817Z,99.99
2017-01-09T10:35:03.500Z,99.99
2017-01-09T10:36:12.208Z,99.99
2017-01-09T10:37:20.893Z,99.99
2017-01-09T10:38:29.572Z,99.99
2017-01-09T10:39:38.259Z,99.99
2017-01-09T10:40:46.947Z,99.99
2017-01-09T10:41:55.629Z,99.99
2017-01-09T10:43:04.340Z,99.99
2017-01-09T10:44:13.031Z,99.99
2017-01-09T10:45:21.714Z,99.99
2017-01-09T10:46:30.400Z,99.99
2017-01-09T10:47:39.085Z,99.99
2017-01-09T10:48:47.767Z,99.99
2017-01-09T10:49:56.450Z,99.99
2017-01-09T10:51:05.139Z,99.99
2017-01-09T10:52:13.852Z,99.99
2017-01-09T10:53:22.537Z,99.99
2017-01-09T10:54:31.222Z,99.99
2017-01-09T10:55:39.913Z,99.99
2017-01-09T10:56:48.594Z,99.99
2017-01-09T10:57:57.285Z,99.99
2017-01-09T10:59:05.967Z,99.99
2017-01-09T11:00:14.655Z,99.99
2017-01-09T11:01:23.340Z,99.99
2017-01-09T11:02:32.023Z,99.99
2017-01-09T11:03:40.710Z,99.99
2017-01-09T11:04:49.397Z,99.99
2017-01-09T11:05:58.081Z,99.99
2017-01-09T11:07:06.771Z,99.99
2017-01-09T11:08:15.467Z,99.99
2017-01-09T11:09:24.175Z,99.99
2017-01-09T11:10:32.890Z,99.99
2017-01-09T11:11:41.617Z,99.99
2017-01-09T11:12:50.300Z,99.99
2017-01-09T11:13:58.987Z,99.99
2017-01-09T11:15:07.672Z,99.99
2017-01-09T11:16:16.358Z,99.99
2017-01-09T11:17:25.043Z,99.99
2017-01-09T11:18:33.730Z,99.99
2017-01-09T11:19:42.417Z,99.99
2017-01-09T11:20:51.102Z,99.99
2017-01-09T11:21:59.786Z,99.99
2017-01-09T11:23:08.475Z,99.99
2017-01-09T11:24:17.162Z,99.99
2017-01-09T11:25:25.853Z,99.99
2017-01-09T11:26:34.544Z,99.99
2017-01-09T11:27:43.240Z,99.99
2017-01-09T11:28:51.925Z,99.99
2017-01-09T11:30:00.610Z,99.99
2017-01-09T11:31:09.304Z,99.99
2017-01-09T11:32:17.986Z,99.99
2017-01-09T11:33:26.678Z,99.99
2017-01-09T11:34:35.365Z,99.99
2017-01-09T11:35:44.051Z,99.99
2017-01-09T11:36:52.736Z,99.99
2017-01-09T11:38:01.433Z,99.99
2017-01-09T11:39:10.125Z,99.99
2017-01-09T11:40:18.809Z,99.99
2017-01-09T11:41:27.512Z,99.99
2017-01-09T11:42:36.196Z,99.99
2017-01-09T11:43:44.879Z,99.99
2017-01-09T11:44:53.563Z,99.99
2017-01-09T11:46:02.261Z,99.99
2017-01-09T11:47:10.951Z,99.99
2017-01-09T11:48:19.634Z,99.99
2017-01-09T11:49:28.326Z,99.99
2017-01-09T11:50:37.014Z,99.99
2017-01-09T11:51:46.097Z,99.99
2017-01-09T11:52:54.787Z,99.99
2017-01-09T11:54:03.537Z,99.99
2017-01-09T11:55:12.219Z,99.99
2017-01-09T11:56:20.904Z,99.99
2017-01-09T11:57:29.589Z,99.99
2017-01-09T11:58:38.276Z,99.99
2017-01-09T11:59:46.965Z,99.99
2017-01-09T12:00:55.654Z,99.99
2017-01-09T12:02:04.340Z,99.99
2017-01-09T12:03:13.029Z,99.99
2017-01-09T12:04:21.719Z,99.99
2017-01-09T12:05:30.440Z,99.99
2017-01-09T12:06:39.122Z,99.99
2017-01-09T12:07:47.807Z,99.99
2017-01-09T12:08:56.492Z,99.99
2017-01-09T12:10:05.180Z,99.99
2017-01-09T12:11:13.866Z,99.99
2017-01-09T12:12:22.551Z,99.99
2017-01-09T12:13:31.237Z,99.99
2017-01-09T12:14:39.922Z,99.99
2017-01-09T12:15:48.613Z,99.99
2017-01-09T12:16:57.294Z,99.99
2017-01-09T12:18:05.981Z,99.99
2017-01-09T12:19:14.668Z,99.99
2017-01-09T12:20:23.351Z,99.99
2017-01-09T12:21:32.041Z,99.99
2017-01-09T12:22:40.725Z,99.99
2017-01-09T12:23:49.410Z,99.99
2017-01-09T12:24:58.094Z,99.99
2017-01-09T12:26:06.786Z,99.99
2017-01-09T12:27:15.475Z,99.99
2017-01-09T12:28:24.158Z,99.99
2017-01-09T12:29:32.847Z,99.99
2017-01-09T12:30:41.551Z,99.99
2017-01-09T12:31:50.245Z,99.99
2017-01-09T12:32:58.931Z,99.99
2017-01-09T12:34:07.617Z,99.99
2017-01-09T12:35:16.301Z,99.99
2017-01-09T12:36:24.994Z,99.99
2017-01-09T12:37:33.703Z,99.99
2017-01-09T12:38:42.386Z,99.99
2017-01-09T12:39:51.068Z,99.99
2017-01-09T12:40:59.753Z,99.99
2017-01-09T12:42:08.440Z,99.99
2017-01-09T12:43:17.128Z,99.99
2017-01-09T12:44:25.832Z,99.99
2017-01-09T12:45:34.511Z,99.99
2017-01-09T12:46:43.216Z,99.99
2017-01-09T12:47:51.905Z,99.99
2017-01-09T12:49:00.597Z,99.99
2017-01-09T12:50:09.686Z,99.99
2017-01-09T12:51:18.383Z,99.99
2017-01-09T12:52:27.072Z,99.99
2017-01-09T12:53:35.756Z,99.99
2017-01-09T12:54:44.455Z,99.99
2017-01-09T12:55:53.135Z,99.99
2017-01-09T12:57:01.819Z,99.99
2017-01-09T12:58:10.503Z,99.99
2017-01-09T12:59:19.184Z,99.99
2017-01-09T13:00:27.867Z,99.99
2017-01-09T13:01:36.556Z,99.99
2017-01-09T13:02:45.238Z,99.99
2017-01-09T13:03:53.925Z,99.99
2017-01-09T13:05:02.610Z,99.99
2017-01-09T13:06:11.296Z,99.99
2017-01-09T13:07:19.991Z,99.99
2017-01-09T13:08:28.676Z,99.99
2017-01-09T13:09:37.375Z,99.99
2017-01-09T13:10:46.067Z,99.99
2017-01-09T13:11:54.795Z,99.99
2017-01-09T13:13:03.505Z,99.99
2017-01-09T13:14:12.190Z,99.99
2017-01-09T13:15:20.874Z,99.99
2017-01-09T13:16:29.562Z,99.99
2017-01-09T13:17:38.242Z,99.99
2017-01-09T13:18:46.926Z,99.99
2017-01-09T13:19:55.607Z,99.99
2017-01-09T13:21:04.302Z,99.99
2017-01-09T13:22:13.384Z,99.99
2017-01-09T13:23:22.078Z,99.99
2017-01-09T13:24:30.760Z,99.99
2017-01-09T13:25:39.446Z,99.99
2017-01-09T13:26:48.134Z,99.99
2017-01-09T13:27:56.825Z,99.99
2017-01-09T13:29:05.509Z,99.99
2017-01-09T13:30:14.192Z,99.99
2017-01-09T13:31:22.878Z,99.99
2017-01-09T13:32:31.568Z,99.99
2017-01-09T13:33:40.259Z,99.99
2017-01-09T13:34:48.942Z,99.99
2017-01-09T13:35:57.628Z,99.99
2017-01-09T13:37:06.385Z,99.99
2017-01-09T13:38:15.078Z,99.99
2017-01-09T13:39:23.766Z,99.99
2017-01-09T13:40:32.461Z,99.99
2017-01-09T13:41:41.300Z,99.99
2017-01-09T13:42:49.992Z,99.99
2017-01-09T13:43:58.687Z,99.99
2017-01-09T13:45:07.369Z,99.99
2017-01-09T13:46:16.062Z,99.99
2017-01-09T13:47:24.760Z,99.99
2017-01-09T13:48:33.446Z,99.99
2017-01-09T13:49:42.128Z,99.99
2017-01-09T13:50:50.818Z,99.99
2017-01-09T13:51:59.507Z,99.99
2017-01-09T13:53:08.253Z,99.99
2017-01-09T13:54:16.938Z,99.99
2017-01-09T13:55:25.643Z,99.99
2017-01-09T13:56:34.329Z,99.99
2017-01-09T13:57:43.016Z,99.99
2017-01-09T13:58:51.700Z,99.99
2017-01-09T14:00:00.386Z,99.99
2017-01-09T14:01:09.074Z,99.99
2017-01-09T14:02:17.761Z,99.99
2017-01-09T14:03:26.444Z,99.99
2017-01-09T14:04:35.163Z,99.99
2017-01-09T14:05:43.849Z,99.99
2017-01-09T14:06:52.535Z,99.99
2017-01-09T14:08:01.223Z,99.99
2017-01-09T14:09:09.904Z,99.99
2017-01-09T14:10:18.600Z,99.99
2017-01-09T14:11:27.288Z,99.99
2017-01-09T14:12:35.971Z,99.99
2017-01-09T14:13:44.664Z,99.99
2017-01-09T14:14:53.348Z,99.99
2017-01-09T14:16:02.031Z,99.99
2017-01-09T14:17:10.717Z,99.99
2017-01-09T14:18:19.409Z,99.99
2017-01-09T14:19:28.120Z,99.99
2017-01-09T14:20:36.804Z,99.99
2017-01-09T14:21:45.491Z,99.99
2017-01-09T14:22:54.175Z,99.99
2017-01-09T14:24:02.862Z,99.99
2017-01-09T14:25:11.548Z,99.99
2017-01-09T14:26:20.230Z,99.99
2017-01-09T14:27:28.921Z,99.99
2017-01-09T14:28:37.615Z,99.99
2017-01-09T14:29:46.300Z,99.99
2017-01-09T14:30:54.999Z,99.99
2017-01-09T14:32:03.691Z,99.99
2017-01-09T14:33:12.420Z,99.99
2017-01-09T14:34:21.110Z,99.99
2017-01-09T14:35:29.799Z,99.99
2017-01-09T14:36:38.489Z,99.99
2017-01-09T14:37:47.182Z,99.99
2017-01-09T14:38:55.874Z,99.99
2017-01-09T14:40:04.559Z,99.99
2017-01-09T14:41:13.241Z,99.99
2017-01-09T14:42:21.933Z,99.99
2017-01-09T14:43:30.626Z,99.99
2017-01-09T14:44:39.316Z,99.99
2017-01-09T14:45:48.000Z,99.99